Time;durP1;ratioP1;P1;durP2;ratioP2;P2;SDS_P1;SDS_P2;PMS_P1;PMS_P2;Temp;Humidity;BMP_temperature;BMP_pressure;BME280_temperature;BME280_humidity;BME280_pressure;Samples;Min_cycle;Max_cycle;Signal;HPM_P1;HPM_P2
2021/03/15 00:01:09;;;;;;;2.65;2.45;;;18.20;62.60;;;;;;5095086;28;20028;-37
2021/03/15 00:03:35;;;;;;;2.60;2.40;;;18.30;62.60;;;;;;5097379;28;20036;-37
2021/03/15 00:06:01;;;;;;;2.53;2.33;;;18.30;62.80;;;;;;5101474;28;20050;-36
2021/03/15 00:08:27;;;;;;;2.83;2.63;;;18.20;62.70;;;;;;5102195;28;22606;-37
2021/03/15 00:10:52;;;;;;;2.92;2.38;;;18.20;63.00;;;;;;5094362;28;20486;-37
2021/03/15 00:13:19;;;;;;;2.53;2.33;;;18.20;62.80;;;;;;5093814;28;20032;-36
2021/03/15 00:15:46;;;;;;;3.97;2.63;;;18.20;62.60;;;;;;5097004;28;20443;-37
2021/03/15 00:18:11;;;;;;;2.63;2.42;;;18.20;62.80;;;;;;5102950;28;20019;-37
2021/03/15 00:20:37;;;;;;;3.10;2.80;;;18.10;62.90;;;;;;5104410;28;20035;-36
2021/03/15 00:23:02;;;;;;;3.05;2.80;;;18.10;63.20;;;;;;5094284;28;20437;-36
2021/03/15 00:25:28;;;;;;;3.45;2.67;;;18.10;64.00;;;;;;5107690;28;20023;-37
2021/03/15 00:27:54;;;;;;;3.33;3.00;;;18.00;63.40;;;;;;5096476;28;20069;-36
2021/03/15 00:30:19;;;;;;;2.97;2.67;;;18.00;63.20;;;;;;5104051;28;20028;-37
2021/03/15 00:32:46;;;;;;;3.05;2.85;;;18.00;63.40;;;;;;5103120;28;20069;-36
2021/03/15 00:35:12;;;;;;;2.55;2.35;;;18.00;63.40;;;;;;5096127;28;20040;-37
2021/03/15 00:37:39;;;;;;;2.95;2.65;;;18.00;63.50;;;;;;5093897;28;20024;-38
2021/03/15 00:40:06;;;;;;;2.75;2.55;;;18.00;63.40;;;;;;5108364;28;20024;-38
2021/03/15 00:42:32;;;;;;;3.10;2.90;;;18.00;63.60;;;;;;5096375;28;20130;-38
2021/03/15 00:44:58;;;;;;;3.28;2.80;;;18.00;63.60;;;;;;5095952;28;20101;-35
2021/03/15 00:47:23;;;;;;;2.55;2.35;;;18.00;63.80;;;;;;5096740;28;20102;-38
2021/03/15 00:49:49;;;;;;;2.22;1.98;;;18.00;63.70;;;;;;5093905;28;20020;-36
2021/03/15 00:52:14;;;;;;;2.30;2.13;;;17.90;63.80;;;;;;5108315;28;20445;-36
2021/03/15 00:54:40;;;;;;;2.35;2.15;;;18.00;64.00;;;;;;5096758;28;20036;-36
2021/03/15 00:57:06;;;;;;;2.65;2.45;;;17.90;63.90;;;;;;5096547;28;20036;-37
2021/03/15 00:59:31;;;;;;;3.55;2.72;;;17.90;64.00;;;;;;5097015;28;20404;-38
2021/03/15 01:01:57;;;;;;;2.88;2.60;;;17.90;63.80;;;;;;5108311;28;20065;-35
2021/03/15 01:04:22;;;;;;;2.40;2.20;;;17.90;64.00;;;;;;5093327;28;20028;-37
2021/03/15 01:06:48;;;;;;;1.95;1.80;;;17.90;64.20;;;;;;5107559;28;20028;-36
2021/03/15 01:09:14;;;;;;;2.97;2.20;;;17.90;64.00;;;;;;5094513;28;20111;-38
2021/03/15 01:11:39;;;;;;;2.45;2.00;;;17.90;64.00;;;;;;5098070;28;20024;-36
2021/03/15 01:14:05;;;;;;;3.35;2.33;;;17.90;64.10;;;;;;5105371;28;20466;-36
2021/03/15 01:16:31;;;;;;;2.50;2.30;;;17.90;64.30;;;;;;5108482;28;24314;-38
2021/03/15 01:18:57;;;;;;;2.00;1.90;;;17.90;64.40;;;;;;5095944;28;20467;-36
2021/03/15 01:21:22;;;;;;;2.53;2.33;;;17.90;64.60;;;;;;5093635;28;20405;-36
2021/03/15 01:23:48;;;;;;;2.50;2.30;;;17.90;64.50;;;;;;5101895;28;20374;-36
2021/03/15 01:26:13;;;;;;;2.40;2.17;;;17.90;64.50;;;;;;5110650;28;20504;-37
2021/03/15 01:28:39;;;;;;;2.50;2.20;;;17.80;64.40;;;;;;5096259;28;20114;-36
2021/03/15 01:31:04;;;;;;;2.13;1.92;;;17.80;64.10;;;;;;5099244;28;20024;-41
2021/03/15 01:33:30;;;;;;;2.83;2.63;;;17.80;64.40;;;;;;5100578;28;20039;-36
2021/03/15 01:35:56;;;;;;;2.70;2.17;;;17.80;64.30;;;;;;5103930;28;20027;-35
2021/03/15 01:38:22;;;;;;;2.20;2.00;;;17.80;64.40;;;;;;5108578;28;20024;-37
2021/03/15 01:40:47;;;;;;;2.17;1.95;;;17.80;64.40;;;;;;5111221;28;20050;-37
2021/03/15 01:43:13;;;;;;;1.85;1.75;;;17.80;64.40;;;;;;5111457;28;20035;-36
2021/03/15 01:45:39;;;;;;;2.25;2.05;;;17.80;64.40;;;;;;5106487;28;20408;-38
2021/03/15 01:48:11;;;;;;;2.08;1.88;;;17.80;64.40;;;;;;5108390;28;20028;-36
2021/03/15 01:50:37;;;;;;;1.83;1.70;;;17.80;64.40;;;;;;5102949;28;20115;-37
2021/03/15 01:53:02;;;;;;;1.77;1.63;;;17.80;64.40;;;;;;5098552;28;20126;-38
2021/03/15 01:55:28;;;;;;;2.22;2.03;;;17.80;64.40;;;;;;5094385;28;20040;-36
2021/03/15 01:57:53;;;;;;;2.03;1.92;;;17.80;64.40;;;;;;5106812;28;20020;-36
2021/03/15 02:00:19;;;;;;;1.80;1.70;;;17.80;64.60;;;;;;5111218;28;20033;-39
2021/03/15 02:03:03;;;;;;;1.88;1.73;;;17.80;65.20;;;;;;5108051;28;20580;-37
2021/03/15 02:05:28;;;;;;;2.20;2.00;;;17.80;64.60;;;;;;5108038;28;20128;-37
2021/03/15 02:07:54;;;;;;;2.10;1.90;;;17.80;64.60;;;;;;5110080;28;20489;-37
2021/03/15 02:10:20;;;;;;;2.10;1.90;;;17.80;64.50;;;;;;5110530;28;20035;-38
2021/03/15 02:12:48;;;;;;;1.90;1.67;;;17.80;64.50;;;;;;5096694;28;20115;-37
2021/03/15 02:15:40;;;;;;;2.08;1.95;;;17.80;64.70;;;;;;5105505;28;20122;-37
2021/03/15 02:18:17;;;;;;;2.13;1.70;;;17.80;64.70;;;;;;5106827;28;20034;-37
2021/03/15 02:21:36;;;;;;;1.67;1.55;;;17.80;64.70;;;;;;5101788;28;20433;-37
2021/03/15 02:24:04;;;;;;;3.13;1.73;;;17.80;64.60;;;;;;5026483;28;20473;-35
2021/03/15 02:26:36;;;;;;;3.10;1.63;;;17.80;64.70;;;;;;5030715;28;20026;-35
2021/03/15 02:29:38;;;;;;;1.75;1.65;;;17.90;64.50;;;;;;5029735;28;20041;-35
2021/03/15 02:32:40;;;;;;;2.05;1.70;;;17.90;64.30;;;;;;5030731;28;20041;-37
2021/03/15 02:35:10;;;;;;;3.15;1.63;;;17.90;64.30;;;;;;4971621;28;20118;-36
2021/03/15 02:37:48;;;;;;;1.80;1.70;;;17.80;64.70;;;;;;4944332;28;20031;-35
2021/03/15 02:40:40;;;;;;;2.38;1.88;;;17.80;64.40;;;;;;4955346;28;20042;-35
2021/03/15 02:43:15;;;;;;;1.80;1.70;;;17.80;64.70;;;;;;4969850;28;20479;-41
2021/03/15 02:45:41;;;;;;;1.38;1.27;;;17.80;64.40;;;;;;4972142;28;20167;-35
2021/03/15 02:48:08;;;;;;;1.55;1.45;;;17.80;64.60;;;;;;4945479;28;20035;-37
2021/03/15 02:50:34;;;;;;;1.55;1.45;;;17.90;64.60;;;;;;4938194;28;20134;-35
2021/03/15 02:52:59;;;;;;;1.55;1.45;;;18.00;64.40;;;;;;4964547;28;20050;-35
2021/03/15 02:55:26;;;;;;;1.55;1.25;;;18.00;64.10;;;;;;4955283;28;20054;-35
2021/03/15 02:57:52;;;;;;;1.50;1.40;;;18.00;63.90;;;;;;4994368;28;20030;-35
2021/03/15 03:00:18;;;;;;;1.40;1.30;;;18.00;63.90;;;;;;5049853;28;20088;-35
2021/03/15 03:02:44;;;;;;;1.55;1.40;;;18.10;63.80;;;;;;5032804;28;20033;-35
2021/03/15 03:05:11;;;;;;;1.25;1.15;;;18.10;63.60;;;;;;5049491;28;20044;-35
2021/03/15 03:07:40;;;;;;;1.40;1.27;;;18.10;63.80;;;;;;5029382;28;20541;-35
2021/03/15 03:10:06;;;;;;;1.88;1.25;;;18.10;63.60;;;;;;5027037;28;20424;-35
2021/03/15 03:12:32;;;;;;;1.25;1.15;;;18.10;63.60;;;;;;5101347;28;20043;-35
2021/03/15 03:14:58;;;;;;;1.65;1.48;;;18.10;63.70;;;;;;5108605;28;20027;-36
2021/03/15 03:17:24;;;;;;;1.30;1.20;;;18.10;63.70;;;;;;5107859;28;20031;-35
2021/03/15 03:19:49;;;;;;;1.65;1.55;;;18.10;63.60;;;;;;5108211;28;20020;-37
2021/03/15 03:22:16;;;;;;;1.50;1.40;;;18.10;63.50;;;;;;5108028;28;20123;-37
2021/03/15 03:24:41;;;;;;;1.20;1.10;;;18.20;63.40;;;;;;5107303;28;20027;-37
2021/03/15 03:27:07;;;;;;;1.58;1.20;;;18.20;63.40;;;;;;5096838;28;20546;-35
2021/03/15 03:29:33;;;;;;;1.60;1.50;;;18.20;63.30;;;;;;5097324;28;20541;-36
2021/03/15 03:31:58;;;;;;;2.35;1.10;;;18.20;63.20;;;;;;5095763;28;20020;-34
2021/03/15 03:34:24;;;;;;;1.40;1.30;;;18.20;63.20;;;;;;5094555;28;20024;-41
2021/03/15 03:36:49;;;;;;;0.95;0.95;;;18.30;63.10;;;;;;5107443;28;20042;-36
2021/03/15 03:39:15;;;;;;;1.25;1.15;;;18.30;62.90;;;;;;5106232;28;20488;-37
2021/03/15 03:41:41;;;;;;;1.17;1.08;;;18.20;63.20;;;;;;5104694;28;20032;-37
2021/03/15 03:44:07;;;;;;;1.30;1.20;;;18.10;63.40;;;;;;5096088;28;20018;-30
2021/03/15 03:46:33;;;;;;;1.10;1.00;;;18.10;63.30;;;;;;5072574;28;20046;-37
2021/03/15 03:48:59;;;;;;;1.42;1.33;;;18.10;63.30;;;;;;5082785;28;20020;-38
2021/03/15 03:51:27;;;;;;;1.10;1.00;;;18.10;63.50;;;;;;5073442;28;20036;-37
2021/03/15 03:54:16;;;;;;;1.70;1.20;;;18.10;63.50;;;;;;5079212;28;20012;-35
2021/03/15 03:56:49;;;;;;;1.20;1.10;;;18.20;63.50;;;;;;5080656;28;20501;-35
2021/03/15 03:59:15;;;;;;;1.30;1.20;;;18.10;63.40;;;;;;5075162;28;20371;-36
2021/03/15 04:01:43;;;;;;;2.03;1.58;;;18.10;63.70;;;;;;5088463;28;20044;-37
2021/03/15 04:04:09;;;;;;;1.35;1.10;;;18.00;64.10;;;;;;5075238;28;20067;-37
2021/03/15 04:06:35;;;;;;;1.40;1.30;;;18.00;64.40;;;;;;5085138;28;20118;-35
2021/03/15 04:09:03;;;;;;;1.33;1.13;;;18.00;64.20;;;;;;5076891;28;20458;-37
2021/03/15 04:11:30;;;;;;;1.38;1.27;;;18.10;64.00;;;;;;5072601;28;20093;-35
2021/03/15 04:13:57;;;;;;;1.13;1.02;;;18.10;63.80;;;;;;5073866;28;20066;-35
2021/03/15 04:16:31;;;;;;;1.27;1.17;;;18.10;63.70;;;;;;5087473;28;20035;-35
2021/03/15 04:18:57;;;;;;;1.65;1.38;;;18.10;63.60;;;;;;5075471;28;20016;-36
2021/03/15 04:21:25;;;;;;;1.20;1.10;;;18.10;63.50;;;;;;5075764;28;20089;-36
2021/03/15 04:23:50;;;;;;;2.15;1.13;;;18.10;64.30;;;;;;5075807;28;20028;-36
2021/03/15 04:26:16;;;;;;;1.33;0.90;;;18.10;63.60;;;;;;5073903;28;20413;-36
2021/03/15 04:28:41;;;;;;;1.15;0.93;;;18.10;63.70;;;;;;5087753;28;20032;-36
2021/03/15 04:31:08;;;;;;;0.98;0.80;;;18.10;63.60;;;;;;5086907;28;20039;-37
2021/03/15 04:33:34;;;;;;;0.90;0.90;;;18.10;63.40;;;;;;5080754;28;20025;-37
2021/03/15 04:35:59;;;;;;;0.85;0.85;;;18.20;63.20;;;;;;5075951;28;20560;-34
2021/03/15 04:38:25;;;;;;;0.80;0.80;;;18.20;63.30;;;;;;5076204;28;20036;-37
2021/03/15 04:40:50;;;;;;;0.80;0.80;;;18.20;63.30;;;;;;5087467;28;20049;-36
2021/03/15 04:43:16;;;;;;;1.13;0.80;;;18.20;63.30;;;;;;5087881;28;20032;-35
2021/03/15 04:45:45;;;;;;;1.38;1.23;;;18.20;63.20;;;;;;5100116;28;20505;-37
2021/03/15 04:48:22;;;;;;;1.05;0.93;;;18.20;63.40;;;;;;5094763;28;20039;-36
2021/03/15 04:50:54;;;;;;;0.93;0.93;;;18.20;63.50;;;;;;5092069;28;20019;-36
2021/03/15 04:53:19;;;;;;;0.95;0.90;;;18.20;63.40;;;;;;5092760;28;20028;-37
2021/03/15 04:55:45;;;;;;;1.10;1.00;;;18.10;63.50;;;;;;5107516;28;20032;-35
2021/03/15 04:58:12;;;;;;;1.00;1.00;;;18.10;63.70;;;;;;5109959;28;20459;-38
2021/03/15 05:00:39;;;;;;;1.02;1.02;;;18.00;63.90;;;;;;5096936;28;20118;-35
2021/03/15 05:03:08;;;;;;;0.88;0.85;;;18.10;63.90;;;;;;5102943;28;20039;-36
2021/03/15 05:05:34;;;;;;;1.02;0.93;;;18.00;64.10;;;;;;5104045;28;20039;-35
2021/03/15 05:08:01;;;;;;;1.23;1.13;;;18.00;64.00;;;;;;5096300;28;20024;-35
2021/03/15 05:10:26;;;;;;;1.10;1.00;;;18.00;64.00;;;;;;5111570;28;20055;-37
2021/03/15 05:12:52;;;;;;;1.02;0.93;;;18.10;63.90;;;;;;5110465;28;20397;-36
2021/03/15 05:15:18;;;;;;;1.02;0.90;;;18.00;64.80;;;;;;5101672;28;20401;-34
2021/03/15 05:17:44;;;;;;;1.00;0.88;;;18.10;63.80;;;;;;5102386;28;20377;-35
2021/03/15 05:20:11;;;;;;;1.08;1.00;;;18.10;63.80;;;;;;5107307;28;20039;-37
2021/03/15 05:22:37;;;;;;;0.70;0.70;;;18.00;63.90;;;;;;5112326;28;20024;-35
2021/03/15 05:25:04;;;;;;;1.13;0.90;;;18.10;64.00;;;;;;5111880;28;20024;-37
2021/03/15 05:27:29;;;;;;;2.35;1.00;;;18.00;64.60;;;;;;5095896;28;20122;-38
2021/03/15 05:29:56;;;;;;;2.08;1.25;;;17.90;65.00;;;;;;5099742;28;20114;-37
2021/03/15 05:32:23;;;;;;;1.17;0.80;;;17.80;65.80;;;;;;5098928;28;20027;-36
2021/03/15 05:34:50;;;;;;;1.20;1.10;;;17.80;66.00;;;;;;5096523;28;20071;-35
2021/03/15 05:37:15;;;;;;;1.80;0.90;;;17.80;66.40;;;;;;5096658;28;20028;-35
2021/03/15 05:39:41;;;;;;;2.42;1.10;;;17.80;66.60;;;;;;5109188;28;20028;-35
2021/03/15 05:42:21;;;;;;;1.13;1.02;;;17.80;66.60;;;;;;5103371;28;20030;-35
2021/03/15 05:45:10;;;;;;;1.40;1.30;;;17.80;66.30;;;;;;5099111;28;20036;-35
2021/03/15 05:48:03;;;;;;;2.20;1.05;;;17.80;66.30;;;;;;5100474;28;20023;-35
2021/03/15 05:50:54;;;;;;;2.53;1.27;;;17.80;66.50;;;;;;5108321;28;20039;-35
2021/03/15 05:53:43;;;;;;;3.22;1.30;;;17.70;66.50;;;;;;5108639;28;20043;-35
2021/03/15 05:56:19;;;;;;;1.70;1.02;;;17.70;65.80;;;;;;5107095;28;20040;-40
2021/03/15 05:59:16;;;;;;;1.88;1.10;;;17.70;66.50;;;;;;5110271;28;20032;-35
2021/03/15 06:02:19;;;;;;;2.45;0.90;;;17.70;66.40;;;;;;5097176;28;20027;-36
2021/03/15 06:04:45;;;;;;;1.42;1.20;;;17.70;65.50;;;;;;5096821;28;20595;-36
2021/03/15 06:07:19;;;;;;;1.73;1.35;;;17.70;66.60;;;;;;5110322;28;20031;-37
2021/03/15 06:10:04;;;;;;;2.42;1.00;;;17.80;67.70;;;;;;5109566;28;20034;-40
2021/03/15 06:12:36;;;;;;;1.92;0.90;;;17.80;68.00;;;;;;5108050;28;20076;-36
2021/03/15 06:15:02;;;;;;;1.55;1.20;;;17.90;67.90;;;;;;5121242;27;20035;-38
2021/03/15 06:17:27;;;;;;;5.25;1.13;;;17.80;66.60;;;;;;5121841;27;20384;-37
2021/03/15 06:19:53;;;;;;;1.75;1.35;;;17.80;67.00;;;;;;5107626;28;20032;-38
2021/03/15 06:22:18;;;;;;;1.65;1.42;;;17.80;67.10;;;;;;5093078;28;20016;-37
2021/03/15 06:24:44;;;;;;;3.33;1.20;;;17.80;67.60;;;;;;5108338;28;20031;-37
2021/03/15 06:27:10;;;;;;;3.30;1.20;;;17.90;67.90;;;;;;5101077;28;20059;-37
2021/03/15 06:29:35;;;;;;;1.52;1.10;;;17.80;67.60;;;;;;5099611;28;20484;-37
2021/03/15 06:32:01;;;;;;;3.90;1.10;;;17.80;69.00;;;;;;5109291;28;20016;-37
2021/03/15 06:34:28;;;;;;;4.55;1.27;;;17.70;70.90;;;;;;5094201;28;20035;-37
2021/03/15 06:36:54;;;;;;;5.13;1.50;;;17.70;72.00;;;;;;5097586;28;20085;-36
2021/03/15 06:39:21;;;;;;;2.35;1.08;;;17.60;71.30;;;;;;5100402;28;20393;-37
2021/03/15 06:41:49;;;;;;;1.63;1.20;;;17.60;71.40;;;;;;5110625;28;20024;-37
2021/03/15 06:44:14;;;;;;;3.45;1.30;;;17.60;70.20;;;;;;5109432;28;20098;-37
2021/03/15 06:46:40;;;;;;;2.15;1.05;;;17.60;70.20;;;;;;5100988;28;20063;-37
2021/03/15 06:49:06;;;;;;;2.72;1.25;;;17.50;69.80;;;;;;5110274;28;20027;-37
2021/03/15 06:51:31;;;;;;;1.80;1.30;;;17.60;70.70;;;;;;5099808;27;20107;-37
2021/03/15 06:53:57;;;;;;;2.70;1.17;;;17.60;70.00;;;;;;5106493;28;20106;-37
2021/03/15 06:56:24;;;;;;;1.63;1.13;;;17.60;70.30;;;;;;5102913;28;20501;-38
2021/03/15 06:58:54;;;;;;;2.88;1.48;;;17.60;71.10;;;;;;5107875;28;20027;-37
2021/03/15 07:01:24;;;;;;;3.65;1.27;;;17.60;69.80;;;;;;5110127;28;20034;-36
2021/03/15 07:03:51;;;;;;;2.47;1.52;;;17.60;69.90;;;;;;5110473;28;20032;-38
2021/03/15 07:06:19;;;;;;;2.00;1.10;;;17.60;70.60;;;;;;5103395;28;20023;-39
2021/03/15 07:08:48;;;;;;;1.80;1.23;;;17.60;70.00;;;;;;5108931;28;20026;-38
2021/03/15 07:11:18;;;;;;;6.20;1.27;;;17.60;69.70;;;;;;5106523;28;20031;-37
2021/03/15 07:13:43;;;;;;;1.60;1.10;;;17.60;70.30;;;;;;5108696;28;20477;-38
2021/03/15 07:16:12;;;;;;;2.55;1.42;;;17.50;69.40;;;;;;5113912;27;20043;-38
2021/03/15 07:18:37;;;;;;;2.55;1.20;;;17.50;69.80;;;;;;5107028;28;20557;-38
2021/03/15 07:21:04;;;;;;;5.13;1.02;;;17.60;68.80;;;;;;5108296;28;20065;-38
2021/03/15 07:23:43;;;;;;;2.28;0.93;;;17.60;69.10;;;;;;5102842;28;20028;-37
2021/03/15 07:26:23;;;;;;;1.40;1.00;;;17.70;68.80;;;;;;5097389;28;20507;-38
2021/03/15 07:28:49;;;;;;;5.65;1.63;;;17.70;68.80;;;;;;5110705;27;20023;-38
2021/03/15 07:31:23;;;;;;;2.05;0.82;;;17.70;68.20;;;;;;5104399;28;20038;-36
2021/03/15 07:33:54;;;;;;;4.70;1.10;;;17.60;67.70;;;;;;5111808;28;20030;-38
2021/03/15 07:36:20;;;;;;;3.85;1.05;;;17.60;67.00;;;;;;5106195;28;20042;-39
2021/03/15 07:38:46;;;;;;;2.85;1.10;;;17.60;67.80;;;;;;5103938;28;20489;-37
2021/03/15 07:41:16;;;;;;;2.10;1.10;;;17.60;69.60;;;;;;5098921;28;20032;-37
2021/03/15 07:43:41;;;;;;;2.03;1.10;;;17.60;69.40;;;;;;5109780;28;20028;-38
2021/03/15 07:46:36;;;;;;;4.18;1.10;;;17.50;69.30;;;;;;5110724;28;20412;-37
2021/03/15 07:49:02;;;;;;;1.98;1.10;;;17.50;69.30;;;;;;5071988;28;20097;-38
2021/03/15 07:51:28;;;;;;;2.83;1.35;;;17.50;69.40;;;;;;5103938;28;20036;-37
2021/03/15 07:54:10;;;;;;;4.50;1.20;;;17.50;69.40;;;;;;5105005;28;20106;-37
2021/03/15 07:56:36;;;;;;;3.53;1.13;;;17.50;69.30;;;;;;5105705;28;20108;-36
2021/03/15 07:59:02;;;;;;;2.13;1.10;;;17.50;69.10;;;;;;5107148;28;20489;-37
2021/03/15 08:01:28;;;;;;;3.22;1.50;;;17.50;69.10;;;;;;5108838;28;20497;-36
2021/03/15 08:03:54;;;;;;;1.50;1.00;;;17.50;69.00;;;;;;5108439;28;20028;-36
2021/03/15 08:06:21;;;;;;;1.70;0.93;;;17.50;68.50;;;;;;5098499;28;20020;-37
2021/03/15 08:08:46;;;;;;;2.42;1.27;;;17.60;68.80;;;;;;5097037;28;20408;-37
2021/03/15 08:11:14;;;;;;;1.00;0.80;;;17.60;68.50;;;;;;5106490;28;20027;-36
2021/03/15 08:13:43;;;;;;;0.93;0.85;;;17.50;69.00;;;;;;5094031;28;20028;-36
2021/03/15 08:16:08;;;;;;;2.55;0.75;;;17.50;68.90;;;;;;5107819;28;20035;-36
2021/03/15 08:18:34;;;;;;;1.40;0.93;;;17.60;69.00;;;;;;5105565;28;20027;-37
2021/03/15 08:21:04;;;;;;;1.27;0.75;;;17.60;68.90;;;;;;5103917;28;20508;-37
2021/03/15 08:23:30;;;;;;;1.60;0.90;;;17.60;68.60;;;;;;5105550;28;20032;-36
2021/03/15 08:26:02;;;;;;;1.02;0.90;;;17.60;68.60;;;;;;5098654;28;20039;-36
2021/03/15 08:28:28;;;;;;;0.88;0.73;;;17.60;68.70;;;;;;5103960;28;20385;-37
2021/03/15 08:30:56;;;;;;;1.50;1.00;;;17.70;68.30;;;;;;5105470;28;20019;-37
2021/03/15 08:33:22;;;;;;;1.65;0.90;;;17.70;68.30;;;;;;5106240;28;20118;-36
2021/03/15 08:35:48;;;;;;;1.20;0.90;;;17.60;68.30;;;;;;5092636;28;20512;-37
2021/03/15 08:38:16;;;;;;;0.65;0.65;;;17.60;68.40;;;;;;5104419;28;20513;-36
2021/03/15 08:40:41;;;;;;;1.88;1.00;;;17.60;68.40;;;;;;5109256;28;20533;-37
2021/03/15 08:43:22;;;;;;;0.95;0.80;;;17.50;68.40;;;;;;5101410;28;20031;-37
2021/03/15 08:45:52;;;;;;;1.80;0.95;;;17.60;68.20;;;;;;5105221;28;20123;-37
2021/03/15 08:48:18;;;;;;;0.70;0.60;;;17.60;68.80;;;;;;5106803;28;20027;-39
2021/03/15 08:50:45;;;;;;;0.80;0.80;;;17.60;68.20;;;;;;5099227;28;20032;-36
2021/03/15 08:53:11;;;;;;;2.20;0.90;;;17.50;68.10;;;;;;5106739;28;20107;-37
2021/03/15 08:55:47;;;;;;;1.02;0.90;;;17.60;68.20;;;;;;5108178;28;20181;-37
2021/03/15 08:58:51;;;;;;;1.80;0.80;;;17.50;68.10;;;;;;5091811;28;20035;-37
2021/03/15 09:01:18;;;;;;;4.82;0.95;;;17.50;68.10;;;;;;5047211;28;20532;-36
2021/03/15 09:04:02;;;;;;;4.78;1.20;;;17.50;68.00;;;;;;5048986;28;20075;-37
2021/03/15 09:06:33;;;;;;;1.48;0.80;;;17.50;68.00;;;;;;5047324;28;20053;-37
2021/03/15 09:08:59;;;;;;;0.90;0.77;;;17.60;68.00;;;;;;5042178;28;20032;-37
2021/03/15 09:11:34;;;;;;;1.17;0.90;;;17.70;67.30;;;;;;5046836;28;20029;-37
2021/03/15 09:14:26;;;;;;;1.30;1.00;;;17.70;67.20;;;;;;5046192;28;20045;-37
2021/03/15 09:17:11;;;;;;;1.70;1.17;;;17.60;67.50;;;;;;5042802;28;20037;-36
2021/03/15 09:19:43;;;;;;;1.08;0.80;;;17.60;67.60;;;;;;5039998;28;20044;-38
2021/03/15 09:22:30;;;;;;;1.92;1.00;;;17.60;67.60;;;;;;5034957;28;20416;-39
2021/03/15 09:24:57;;;;;;;2.08;1.00;;;17.50;67.40;;;;;;5046896;28;20048;-38
2021/03/15 09:27:29;;;;;;;0.90;0.82;;;17.50;67.60;;;;;;5046667;28;20051;-38
2021/03/15 09:29:59;;;;;;;1.83;0.90;;;17.50;67.50;;;;;;5045643;28;20061;-38
2021/03/15 09:32:52;;;;;;;1.30;0.70;;;17.50;67.50;;;;;;5076824;28;20474;-38
2021/03/15 09:35:33;;;;;;;1.45;0.85;;;17.50;67.30;;;;;;5095386;28;20044;-38
2021/03/15 09:38:06;;;;;;;1.15;0.90;;;17.50;67.50;;;;;;5103745;28;20017;-37
2021/03/15 09:40:33;;;;;;;1.75;1.23;;;17.50;67.50;;;;;;5104553;28;20062;-38
2021/03/15 09:42:59;;;;;;;1.67;1.05;;;17.50;67.50;;;;;;5107653;28;20077;-37
2021/03/15 09:45:35;;;;;;;0.77;0.65;;;17.50;67.70;;;;;;5100108;28;20436;-38
2021/03/15 09:48:03;;;;;;;1.50;0.90;;;17.50;67.70;;;;;;5096163;28;20028;-38
2021/03/15 09:50:31;;;;;;;1.15;0.80;;;17.60;67.60;;;;;;5108303;28;20051;-39
2021/03/15 09:53:12;;;;;;;0.98;0.82;;;17.60;67.50;;;;;;5107119;28;20050;-39
2021/03/15 09:55:38;;;;;;;0.85;0.65;;;17.60;67.40;;;;;;5094596;28;20161;-39
2021/03/15 09:58:07;;;;;;;0.82;0.82;;;17.80;66.90;;;;;;5098989;28;20118;-39
2021/03/15 10:00:33;;;;;;;1.90;0.88;;;17.70;66.90;;;;;;5098726;28;20036;-39
2021/03/15 10:02:59;;;;;;;0.60;0.60;;;17.70;67.10;;;;;;5104952;27;20034;-38
2021/03/15 10:05:25;;;;;;;0.85;0.77;;;17.70;67.00;;;;;;5110350;28;20031;-38
2021/03/15 10:07:50;;;;;;;1.90;1.20;;;17.70;67.30;;;;;;5109720;28;20023;-39
2021/03/15 10:10:17;;;;;;;1.00;0.88;;;17.70;66.90;;;;;;5111939;28;20035;-39
2021/03/15 10:12:43;;;;;;;0.80;0.65;;;17.70;66.90;;;;;;5099301;28;20024;-38
2021/03/15 10:15:11;;;;;;;1.00;0.80;;;17.80;66.60;;;;;;5111822;28;20039;-39
2021/03/15 10:17:36;;;;;;;1.10;0.93;;;17.80;66.80;;;;;;5109656;28;20027;-39
2021/03/15 10:20:04;;;;;;;1.00;0.90;;;17.70;66.90;;;;;;5110256;28;20052;-38
2021/03/15 10:22:30;;;;;;;1.25;0.98;;;17.70;66.80;;;;;;5110956;28;20040;-38
2021/03/15 10:24:55;;;;;;;1.33;0.88;;;17.70;66.90;;;;;;5110039;28;20023;-38
2021/03/15 10:27:25;;;;;;;1.50;1.00;;;17.70;66.80;;;;;;5106250;28;20024;-38
2021/03/15 10:29:54;;;;;;;0.93;0.88;;;17.70;66.70;;;;;;5109842;28;20027;-38
2021/03/15 10:32:21;;;;;;;2.55;1.00;;;17.70;66.60;;;;;;5106550;28;20036;-39
2021/03/15 10:34:57;;;;;;;0.85;0.70;;;17.70;66.70;;;;;;5108534;28;20028;-38
2021/03/15 10:37:23;;;;;;;1.27;1.10;;;17.60;66.90;;;;;;5108208;28;20035;-38
2021/03/15 10:39:49;;;;;;;2.75;0.88;;;17.60;67.00;;;;;;5107085;28;20080;-39
2021/03/15 10:42:19;;;;;;;1.20;0.85;;;17.60;66.90;;;;;;5105688;28;20036;-38
2021/03/15 10:44:45;;;;;;;1.23;1.10;;;17.70;66.50;;;;;;5105182;28;20577;-38
2021/03/15 10:47:13;;;;;;;1.10;0.85;;;17.60;64.90;;;;;;5108524;28;20096;-39
2021/03/15 10:49:39;;;;;;;1.55;1.20;;;17.60;65.40;;;;;;5106112;28;20134;-36
2021/03/15 10:52:05;;;;;;;1.50;1.00;;;17.60;65.70;;;;;;5109461;28;20118;-37
2021/03/15 10:54:35;;;;;;;1.95;1.13;;;17.60;66.60;;;;;;5110065;28;20178;-38
2021/03/15 10:57:20;;;;;;;1.92;1.10;;;17.60;66.10;;;;;;5109783;28;20043;-36
2021/03/15 10:59:47;;;;;;;1.98;1.42;;;17.60;63.90;;;;;;5106948;28;20073;-38
2021/03/15 11:02:26;;;;;;;2.83;2.30;;;17.60;63.90;;;;;;5109014;28;20040;-38
2021/03/15 11:04:56;;;;;;;2.88;2.60;;;17.70;63.60;;;;;;5104882;28;20401;-37
2021/03/15 11:07:22;;;;;;;2.10;1.90;;;17.70;63.30;;;;;;5103647;28;20027;-38
2021/03/15 11:10:03;;;;;;;3.47;2.20;;;17.80;63.00;;;;;;5116297;27;20040;-37
2021/03/15 11:12:43;;;;;;;2.10;1.90;;;17.80;63.90;;;;;;5109666;28;20034;-37
2021/03/15 11:15:19;;;;;;;2.17;1.98;;;17.70;64.60;;;;;;5109002;28;20035;-36
2021/03/15 11:18:13;;;;;;;1.95;1.80;;;17.80;65.10;;;;;;5106023;28;20092;-36
2021/03/15 11:20:44;;;;;;;2.25;1.90;;;17.80;64.90;;;;;;5109005;28;20024;-36
2021/03/15 11:23:10;;;;;;;1.48;1.38;;;17.80;65.10;;;;;;5108819;28;20031;-37
2021/03/15 11:25:36;;;;;;;2.45;2.25;;;17.90;65.40;;;;;;5110302;28;20081;-36
2021/03/15 11:28:04;;;;;;;3.38;2.50;;;17.80;65.60;;;;;;5108825;28;20505;-37
2021/03/15 11:30:30;;;;;;;2.70;2.22;;;18.00;65.80;;;;;;5097853;28;20024;-37
2021/03/15 11:33:12;;;;;;;3.60;2.40;;;18.10;65.00;;;;;;5097448;28;20031;-37
2021/03/15 11:35:39;;;;;;;2.78;2.58;;;18.20;64.60;;;;;;5096734;28;20063;-37
2021/03/15 11:38:04;;;;;;;2.60;2.40;;;18.10;64.80;;;;;;5096003;28;20024;-36
2021/03/15 11:40:36;;;;;;;3.13;2.58;;;18.10;65.00;;;;;;4744697;27;10000011;-37
2021/03/15 11:43:02;;;;;;;2.50;2.30;;;18.10;65.30;;;;;;5093901;28;20051;-32
2021/03/15 11:45:29;;;;;;;2.35;2.13;;;18.10;65.00;;;;;;5094492;28;20538;-43
2021/03/15 11:47:55;;;;;;;2.50;2.30;;;18.20;64.90;;;;;;5095839;28;20118;-38
2021/03/15 11:50:21;;;;;;;2.30;2.10;;;18.30;64.80;;;;;;5103412;28;20107;-36
2021/03/15 11:52:47;;;;;;;2.70;2.40;;;18.20;65.00;;;;;;5089659;28;20461;-36
2021/03/15 11:55:13;;;;;;;3.25;2.47;;;18.10;65.30;;;;;;5091118;28;20592;-38
2021/03/15 11:57:44;;;;;;;2.70;2.50;;;18.00;65.60;;;;;;5093490;28;20020;-40
2021/03/15 12:00:11;;;;;;;2.33;2.13;;;18.00;65.90;;;;;;5097488;28;20039;-42
2021/03/15 12:02:37;;;;;;;2.15;1.80;;;18.10;65.50;;;;;;5104652;28;20077;-38
2021/03/15 12:05:07;;;;;;;2.25;1.80;;;18.30;65.00;;;;;;5103760;28;20515;-39
2021/03/15 12:07:33;;;;;;;2.40;2.20;;;18.30;65.10;;;;;;5105241;28;20676;-42
2021/03/15 12:09:59;;;;;;;6.35;2.10;;;18.40;65.00;;;;;;5107895;28;20024;-36
2021/03/15 12:12:24;;;;;;;2.47;2.28;;;18.40;64.60;;;;;;5106415;28;20378;-37
2021/03/15 12:14:51;;;;;;;2.13;1.92;;;18.40;64.60;;;;;;5101791;28;20020;-36
2021/03/15 12:17:16;;;;;;;2.30;2.13;;;18.40;64.70;;;;;;5095881;28;20410;-36
2021/03/15 12:19:42;;;;;;;2.65;2.15;;;18.40;65.00;;;;;;5093051;28;20023;-38
2021/03/15 12:22:07;;;;;;;2.22;2.03;;;18.30;65.10;;;;;;5107599;28;20039;-38
2021/03/15 12:24:33;;;;;;;2.78;2.58;;;18.20;65.40;;;;;;5095262;28;20024;-36
2021/03/15 12:26:58;;;;;;;2.20;2.00;;;18.20;65.50;;;;;;5096130;28;20035;-36
2021/03/15 12:29:24;;;;;;;2.15;1.95;;;18.10;65.50;;;;;;5094869;28;20030;-37
2021/03/15 12:31:51;;;;;;;2.03;1.92;;;18.20;65.60;;;;;;5106584;28;20031;-37
2021/03/15 12:34:17;;;;;;;2.00;1.80;;;18.20;65.50;;;;;;5107484;28;20059;-37
2021/03/15 12:36:42;;;;;;;2.67;1.95;;;18.20;65.50;;;;;;5096511;28;20071;-36
2021/03/15 12:39:08;;;;;;;1.90;1.80;;;18.20;65.60;;;;;;5105786;28;20055;-38
2021/03/15 12:41:33;;;;;;;3.08;1.80;;;18.20;65.20;;;;;;5103847;28;20027;-39
2021/03/15 12:43:59;;;;;;;1.83;1.65;;;18.20;65.50;;;;;;5101263;28;20099;-37
2021/03/15 12:46:25;;;;;;;2.30;2.10;;;18.10;65.70;;;;;;5091812;28;20059;-36
2021/03/15 12:48:50;;;;;;;2.53;2.33;;;18.10;65.60;;;;;;5108707;28;20022;-38
2021/03/15 12:51:16;;;;;;;2.45;2.15;;;18.00;65.80;;;;;;5097883;28;20093;-36
2021/03/15 12:53:41;;;;;;;2.42;1.92;;;18.10;65.90;;;;;;5095768;28;20046;-36
2021/03/15 12:56:07;;;;;;;1.95;1.73;;;18.10;65.70;;;;;;5095312;28;20032;-36